Time;durP1;ratioP1;P1;durP2;ratioP2;P2;SDS_P1;SDS_P2;PMS_P1;PMS_P2;Temp;Humidity;BMP_temperature;BMP_pressure;BME280_temperature;BME280_humidity;BME280_pressure;Samples;Min_cycle;Max_cycle;Signal;HPM_P1;HPM_P2
2023/04/18 00:01:52;;;;;;;;;;;;;;;7.93;81.09;102266.06;4167961;28;20353;-67
2023/04/18 00:03:54;;;;;;;;;;;;;;;7.90;80.95;102264.50;4168604;28;19925;-67
2023/04/18 00:05:56;;;;;;;;;;;;;;;7.90;80.63;102271.72;4167412;28;20015;-67
2023/04/18 00:08:00;;;;;;;;;;;;;;;7.92;80.47;102269.75;4169067;28;19996;-68
2023/04/18 00:10:07;;;;;;;;;;;;;;;7.91;81.03;102274.25;4169853;28;19924;-67
2023/04/18 00:12:10;;;;;;;;;;;;;;;7.92;81.04;102273.28;4172179;28;20013;-67
2023/04/18 00:14:12;;;;;;;;;;;;;;;7.94;81.12;102276.69;4171994;28;20023;-66
2023/04/18 00:16:14;;;;;;;;;;;;;;;7.92;81.00;102275.97;4172385;28;20028;-67
2023/04/18 00:18:16;;;;;;;;;;;;;;;7.94;80.91;102278.53;4172497;28;20020;-68
2023/04/18 00:20:18;;;;;;;;;;;;;;;7.90;80.75;102275.25;4171541;28;19925;-67
2023/04/18 00:22:21;;;;;;;;;;;;;;;7.88;80.43;102277.22;4171698;28;20368;-66
2023/04/18 00:24:24;;;;;;;;;;;;;;;7.85;80.53;102274.75;4172718;28;20012;-66
2023/04/18 00:26:27;;;;;;;;;;;;;;;7.83;80.49;102271.31;4172402;28;20019;-66
2023/04/18 00:28:29;;;;;;;;;;;;;;;7.82;80.47;102271.44;4172175;28;20032;-67
2023/04/18 00:30:31;;;;;;;;;;;;;;;7.82;80.34;102280.38;4187295;28;20015;-66
2023/04/18 00:32:33;;;;;;;;;;;;;;;7.80;79.94;102270.72;4171965;28;20016;-67
2023/04/18 00:34:35;;;;;;;;;;;;;;;7.79;80.30;102283.31;4172293;28;20015;-66
2023/04/18 00:36:37;;;;;;;;;;;;;;;7.79;80.08;102283.31;4172627;28;20423;-66
2023/04/18 00:38:39;;;;;;;;;;;;;;;7.76;80.15;102273.66;4170902;28;20029;-67
2023/04/18 00:40:43;;;;;;;;;;;;;;;7.72;79.99;102285.59;4171672;28;19933;-67
2023/04/18 00:42:48;;;;;;;;;;;;;;;7.71;79.88;102278.53;4171681;28;20474;-66
2023/04/18 00:44:50;;;;;;;;;;;;;;;7.66;79.74;102275.34;4170667;28;20023;-67
2023/04/18 00:46:52;;;;;;;;;;;;;;;7.65;79.93;102278.13;4170697;28;20227;-67
2023/04/18 00:48:54;;;;;;;;;;;;;;;7.63;80.36;102275.56;4170680;28;20447;-67
2023/04/18 00:50:56;;;;;;;;;;;;;;;7.61;79.90;102274.00;4170325;28;20380;-67
2023/04/18 00:52:58;;;;;;;;;;;;;;;7.57;80.05;102276.94;4166584;28;20074;-66
2023/04/18 00:55:00;;;;;;;;;;;;;;;7.53;80.05;102274.59;4171557;28;20013;-66
2023/04/18 00:57:04;;;;;;;;;;;;;;;7.51;80.26;102274.72;4170177;28;20024;-66
2023/04/18 00:59:06;;;;;;;;;;;;;;;7.52;80.33;102276.44;4171856;28;20022;-67
2023/04/18 01:01:08;;;;;;;;;;;;;;;7.50;79.88;102274.84;4169903;28;20501;-67
2023/04/18 01:03:13;;;;;;;;;;;;;;;7.50;80.34;102273.00;4170064;28;20442;-67
2023/04/18 01:05:15;;;;;;;;;;;;;;;7.47;80.06;102267.00;4172215;28;20012;-67
2023/04/18 01:07:17;;;;;;;;;;;;;;;7.49;80.26;102273.09;4172444;28;20088;-66
2023/04/18 01:09:20;;;;;;;;;;;;;;;7.44;80.16;102267.25;4170046;28;20027;-67
2023/04/18 01:11:22;;;;;;;;;;;;;;;7.42;79.77;102272.72;4186304;28;20389;-67
2023/04/18 01:13:26;;;;;;;;;;;;;;;7.43;80.11;102276.28;4170643;28;20015;-67
2023/04/18 01:15:28;;;;;;;;;;;;;;;7.41;80.38;102262.94;4170046;28;20020;-68
2023/04/18 01:17:33;;;;;;;;;;;;;;;7.41;80.01;102271.00;4170922;28;20027;-67
2023/04/18 01:19:36;;;;;;;;;;;;;;;7.39;80.12;102268.44;4154391;28;20015;-67
2023/04/18 01:21:42;;;;;;;;;;;;;;;7.40;80.07;102272.00;4170407;28;20300;-67
2023/04/18 01:23:47;;;;;;;;;;;;;;;7.40;79.81;102275.53;4162651;28;20591;-67
2023/04/18 01:25:52;;;;;;;;;;;;;;;7.42;79.82;102283.50;4161703;28;20035;-68
2023/04/18 01:27:54;;;;;;;;;;;;;;;7.40;79.72;102282.75;4178740;28;20450;-66
2023/04/18 01:29:56;;;;;;;;;;;;;;;7.32;79.65;102286.03;4171602;28;20348;-68
2023/04/18 01:32:01;;;;;;;;;;;;;;;7.29;79.78;102280.00;4169701;28;20031;-67
2023/04/18 01:34:03;;;;;;;;;;;;;;;7.26;80.11;102288.31;4171518;28;20036;-67
2023/04/18 01:36:05;;;;;;;;;;;;;;;7.24;80.20;102272.34;4165942;28;20044;-66
2023/04/18 01:38:08;;;;;;;;;;;;;;;7.21;80.06;102286.84;4186338;28;20480;-66
2023/04/18 01:40:11;;;;;;;;;;;;;;;7.17;80.04;102279.13;4178446;28;20008;-67
2023/04/18 01:42:15;;;;;;;;;;;;;;;7.14;80.06;102282.06;4162237;28;20347;-67
2023/04/18 01:44:19;;;;;;;;;;;;;;;7.11;80.24;102275.09;4170222;28;20024;-67
2023/04/18 01:46:21;;;;;;;;;;;;;;;7.09;80.35;102273.50;4170508;28;20468;-67
2023/04/18 01:48:24;;;;;;;;;;;;;;;7.09;80.65;102279.72;4178131;28;20440;-66
2023/04/18 01:50:26;;;;;;;;;;;;;;;7.10;80.33;102272.50;4170947;28;20020;-66
2023/04/18 01:52:28;;;;;;;;;;;;;;;7.09;80.28;102271.66;4169367;28;20347;-67
2023/04/18 01:54:30;;;;;;;;;;;;;;;7.10;80.41;102276.06;4170302;28;20012;-66
2023/04/18 01:56:32;;;;;;;;;;;;;;;7.08;80.38;102272.63;4170981;28;20024;-66
2023/04/18 01:58:37;;;;;;;;;;;;;;;7.04;80.30;102273.84;4162136;28;20023;-66
2023/04/18 02:00:39;;;;;;;;;;;;;;;7.05;80.43;102275.53;4186576;28;20461;-67
2023/04/18 02:02:41;;;;;;;;;;;;;;;7.07;80.60;102264.69;4167880;28;19932;-66
2023/04/18 02:04:44;;;;;;;;;;;;;;;7.08;80.54;102264.56;4171787;28;20403;-66
2023/04/18 02:06:46;;;;;;;;;;;;;;;7.08;80.79;102272.63;4169555;28;20011;-66
2023/04/18 02:08:55;;;;;;;;;;;;;;;7.06;80.66;102266.53;4171124;28;20024;-66
2023/04/18 02:11:02;;;;;;;;;;;;;;;7.04;80.64;102265.78;4161474;28;20052;-67
2023/04/18 02:13:06;;;;;;;;;;;;;;;7.03;80.44;102272.13;4169772;28;20403;-67
2023/04/18 02:15:10;;;;;;;;;;;;;;;7.01;80.68;102271.41;4171673;28;20007;-67
2023/04/18 02:17:12;;;;;;;;;;;;;;;7.00;80.78;102266.97;4170026;28;20019;-67
2023/04/18 02:19:15;;;;;;;;;;;;;;;6.98;80.60;102272.47;4185248;28;20028;-67
2023/04/18 02:21:18;;;;;;;;;;;;;;;7.01;80.90;102272.25;4171691;28;20482;-67
2023/04/18 02:23:20;;;;;;;;;;;;;;;7.04;80.95;102266.63;4169683;28;20482;-67
2023/04/18 02:25:25;;;;;;;;;;;;;;;7.08;80.83;102269.09;4168825;28;20381;-67
2023/04/18 02:27:27;;;;;;;;;;;;;;;7.08;80.94;102269.09;4169093;28;20023;-66
2023/04/18 02:29:34;;;;;;;;;;;;;;;7.09;80.96;102273.50;4168847;28;20017;-67
2023/04/18 02:31:39;;;;;;;;;;;;;;;7.10;80.79;102277.88;4167928;28;20016;-67
2023/04/18 02:33:42;;;;;;;;;;;;;;;7.11;80.77;102275.09;4170234;28;20347;-67
2023/04/18 02:35:44;;;;;;;;;;;;;;;7.13;80.89;102272.28;4170015;28;20023;-68
2023/04/18 02:37:46;;;;;;;;;;;;;;;7.13;80.79;102273.16;4169448;28;19956;-67
2023/04/18 02:39:48;;;;;;;;;;;;;;;7.12;80.48;102270.59;4170317;28;20609;-66
2023/04/18 02:41:50;;;;;;;;;;;;;;;7.14;80.69;102274.84;4169798;28;20019;-66
2023/04/18 02:43:52;;;;;;;;;;;;;;;7.17;80.81;102273.75;4170826;28;20377;-67
2023/04/18 02:45:55;;;;;;;;;;;;;;;7.16;80.73;102277.41;4167643;28;20023;-67
2023/04/18 02:47:58;;;;;;;;;;;;;;;7.16;80.49;102278.28;4185679;28;20015;-66
2023/04/18 02:50:01;;;;;;;;;;;;;;;7.18;80.58;102275.50;4168462;28;20020;-67
2023/04/18 02:52:04;;;;;;;;;;;;;;;7.19;80.87;102278.06;4169957;28;20012;-67
2023/04/18 02:54:06;;;;;;;;;;;;;;;7.22;80.93;102271.56;4170113;28;20335;-67
2023/04/18 02:56:23;;;;;;;;;;;;;;;7.25;80.77;102271.34;4168602;28;20023;-67
2023/04/18 02:58:44;;;;;;;;;;;;;;;7.22;80.39;102268.88;4169715;28;20028;-67
2023/04/18 03:01:08;;;;;;;;;;;;;;;7.21;80.27;102276.09;4158905;28;20016;-67
2023/04/18 03:03:37;;;;;;;;;;;;;;;7.21;80.39;102275.25;4166883;28;20023;-67
2023/04/18 03:05:55;;;;;;;;;;;;;;;7.23;80.64;102278.69;4169176;28;20020;-67
2023/04/18 03:07:57;;;;;;;;;;;;;;;7.26;80.67;102277.56;4169267;28;20044;-67
2023/04/18 03:09:59;;;;;;;;;;;;;;;7.24;80.59;102274.16;4177443;28;20023;-67
2023/04/18 03:12:06;;;;;;;;;;;;;;;7.26;80.33;102280.25;4167473;28;20343;-69
2023/04/18 03:14:10;;;;;;;;;;;;;;;7.27;80.70;102279.28;4177601;28;19929;-69
2023/04/18 03:16:21;;;;;;;;;;;;;;;7.29;80.35;102278.22;4169581;28;20016;-68
2023/04/18 03:18:24;;;;;;;;;;;;;;;7.31;80.23;102275.41;4169139;28;20386;-68
2023/04/18 03:20:33;;;;;;;;;;;;;;;7.26;80.05;102275.75;4169678;28;20028;-69
2023/04/18 03:22:35;;;;;;;;;;;;;;;7.24;80.10;102274.16;4176842;28;20387;-68
2023/04/18 03:24:37;;;;;;;;;;;;;;;7.22;80.24;102275.13;4169905;28;20632;-68
2023/04/18 03:26:41;;;;;;;;;;;;;;;7.24;80.43;102274.16;4168873;28;20393;-68
2023/04/18 03:28:44;;;;;;;;;;;;;;;7.22;79.92;102276.94;4184842;28;20036;-69
2023/04/18 03:30:47;;;;;;;;;;;;;;;7.19;79.67;102285.25;4169894;28;20027;-68
2023/04/18 03:32:49;;;;;;;;;;;;;;;7.20;79.90;102281.59;4169093;28;20059;-68
2023/04/18 03:34:51;;;;;;;;;;;;;;;7.20;80.07;102276.22;4168889;28;20028;-68
2023/04/18 03:36:56;;;;;;;;;;;;;;;7.20;80.07;102276.22;4169172;28;20020;-68
2023/04/18 03:38:59;;;;;;;;;;;;;;;7.19;79.69;102279.88;4184452;28;20442;-68
2023/04/18 03:41:01;;;;;;;;;;;;;;;7.14;79.66;102282.91;4168597;28;20019;-68
2023/04/18 03:43:08;;;;;;;;;;;;;;;7.15;79.49;102281.94;4184374;28;20015;-69
2023/04/18 03:45:11;;;;;;;;;;;;;;;7.19;79.59;102277.19;4179965;28;20020;-68
2023/04/18 03:47:14;;;;;;;;;;;;;;;7.17;79.97;102277.31;4171192;28;19979;-68
2023/04/18 03:49:18;;;;;;;;;;;;;;;7.18;79.40;102281.72;4187265;28;20016;-68
2023/04/18 03:51:20;;;;;;;;;;;;;;;7.16;79.41;102282.78;4170418;28;20533;-69
2023/04/18 03:53:24;;;;;;;;;;;;;;;7.15;79.59;102281.09;4153657;28;20015;-68
2023/04/18 03:55:26;;;;;;;;;;;;;;;7.14;79.31;102285.59;4163096;28;20063;-68
2023/04/18 03:57:28;;;;;;;;;;;;;;;7.11;79.15;102290.34;4186029;28;20015;-68
2023/04/18 03:59:30;;;;;;;;;;;;;;;7.09;79.16;102290.47;4185565;28;20008;-68
2023/04/18 04:01:32;;;;;;;;;;;;;;;7.10;79.33;102286.81;4169628;28;20028;-68
2023/04/18 04:03:34;;;;;;;;;;;;;;;7.07;79.09;102284.38;4169367;28;20016;-68
2023/04/18 04:05:36;;;;;;;;;;;;;;;7.07;79.20;102284.38;4170943;28;20035;-68
2023/04/18 04:07:39;;;;;;;;;;;;;;;7.06;79.40;102284.47;4170584;28;20480;-68
2023/04/18 04:09:44;;;;;;;;;;;;;;;7.10;79.55;102288.63;4170766;28;20024;-68
2023/04/18 04:11:47;;;;;;;;;;;;;;;7.12;79.07;102286.69;4186956;28;20043;-68
2023/04/18 04:13:50;;;;;;;;;;;;;;;7.13;79.47;102293.78;4180420;28;20037;-68
2023/04/18 04:15:57;;;;;;;;;;;;;;;7.13;79.22;102291.97;4188018;28;20026;-68
2023/04/18 04:17:59;;;;;;;;;;;;;;;7.12;79.01;102295.63;4171069;28;20020;-69
2023/04/18 04:20:02;;;;;;;;;;;;;;;7.09;79.15;102293.16;4171219;28;20035;-69
2023/04/18 04:22:07;;;;;;;;;;;;;;;7.08;79.04;102298.66;4187795;28;20028;-69
2023/04/18 04:24:10;;;;;;;;;;;;;;;7.08;79.26;102293.28;4187260;28;20482;-68
2023/04/18 04:26:17;;;;;;;;;;;;;;;7.08;79.30;102295.97;4171595;28;20040;-68
2023/04/18 04:28:27;;;;;;;;;;;;;;;7.09;78.86;102303.91;4170344;28;20455;-69
2023/04/18 04:30:34;;;;;;;;;;;;;;;7.10;79.26;102294.00;4170924;28;20023;-67
2023/04/18 04:32:37;;;;;;;;;;;;;;;7.05;78.73;102305.09;4170633;28;20049;-67
2023/04/18 04:34:41;;;;;;;;;;;;;;;7.06;79.04;102301.44;4179203;28;20116;-67
2023/04/18 04:36:45;;;;;;;;;;;;;;;7.03;78.66;102305.22;4171146;28;20048;-67
2023/04/18 04:38:48;;;;;;;;;;;;;;;7.05;78.87;102310.47;4170833;28;20012;-66
2023/04/18 04:40:51;;;;;;;;;;;;;;;7.03;78.85;102307.91;4171474;28;20015;-67
2023/04/18 04:42:57;;;;;;;;;;;;;;;7.03;78.90;102313.28;4163753;28;20035;-67
2023/04/18 04:45:09;;;;;;;;;;;;;;;7.02;79.05;102310.69;4188078;28;20446;-67
2023/04/18 04:47:11;;;;;;;;;;;;;;;7.03;79.03;102315.97;4171262;28;20019;-66
2023/04/18 04:49:14;;;;;;;;;;;;;;;7.03;78.91;102307.91;4171374;28;19936;-66
2023/04/18 04:51:17;;;;;;;;;;;;;;;7.02;79.23;102311.56;4162490;28;20462;-66
2023/04/18 04:53:19;;;;;;;;;;;;;;;7.02;79.14;102313.38;4168799;28;20020;-66
2023/04/18 04:55:25;;;;;;;;;;;;;;;6.99;79.17;102305.56;4168856;28;20007;-66
2023/04/18 04:57:27;;;;;;;;;;;;;;;6.98;79.38;102312.75;4178776;28;20004;-65
2023/04/18 04:59:31;;;;;;;;;;;;;;;7.00;79.29;102316.19;4178650;28;20004;-65
2023/04/18 05:01:33;;;;;;;;;;;;;;;6.99;79.43;102313.63;4170690;28;20036;-66
2023/04/18 05:03:38;;;;;;;;;;;;;;;7.00;79.66;102318.03;4172842;28;20019;-65
2023/04/18 05:05:40;;;;;;;;;;;;;;;7.04;79.52;102316.84;4168819;28;19968;-66
2023/04/18 05:07:42;;;;;;;;;;;;;;;7.06;79.67;102319.41;4171901;28;20373;-67
2023/04/18 05:09:44;;;;;;;;;;;;;;;7.03;79.46;102318.63;4172122;28;20399;-66
2023/04/18 05:11:48;;;;;;;;;;;;;;;7.03;79.69;102320.47;4178013;28;20027;-67
2023/04/18 05:13:50;;;;;;;;;;;;;;;7.04;79.74;102315.00;4170911;28;20889;-66
2023/04/18 05:15:53;;;;;;;;;;;;;;;7.07;79.49;102319.28;4171608;28;20020;-67
2023/04/18 05:17:55;;;;;;;;;;;;;;;7.07;79.47;102321.97;4171423;28;20027;-67
2023/04/18 05:19:57;;;;;;;;;;;;;;;7.09;79.42;102320.03;4172029;28;20101;-67
2023/04/18 05:21:59;;;;;;;;;;;;;;;7.09;79.46;102327.25;4171059;28;20043;-68
2023/04/18 05:24:01;;;;;;;;;;;;;;;7.10;79.51;102320.88;4170096;28;20351;-68
2023/04/18 05:26:03;;;;;;;;;;;;;;;7.11;79.61;102326.13;4169063;28;19967;-68
2023/04/18 05:28:07;;;;;;;;;;;;;;;7.12;79.42;102329.69;4171138;28;20055;-67
2023/04/18 05:30:09;;;;;;;;;;;;;;;7.13;79.61;102324.22;4169928;28;19929;-68
2023/04/18 05:32:12;;;;;;;;;;;;;;;7.16;79.56;102320.41;4170958;28;20031;-67
2023/04/18 05:34:15;;;;;;;;;;;;;;;7.16;79.20;102321.28;4169869;28;20055;-68
2023/04/18 05:36:17;;;;;;;;;;;;;;;7.14;79.27;102327.75;4168332;28;20020;-67
2023/04/18 05:38:19;;;;;;;;;;;;;;;7.14;78.86;102327.75;4169156;28;20032;-68
2023/04/18 05:40:22;;;;;;;;;;;;;;;7.15;79.04;102326.78;4169535;28;20054;-67
2023/04/18 05:42:25;;;;;;;;;;;;;;;7.14;79.24;102327.75;4169496;28;20028;-66
2023/04/18 05:44:27;;;;;;;;;;;;;;;7.15;78.92;102327.63;4168313;28;20052;-66
2023/04/18 05:46:31;;;;;;;;;;;;;;;7.18;78.87;102323.88;4171241;28;20019;-68
2023/04/18 05:48:36;;;;;;;;;;;;;;;7.17;79.04;102325.66;4171316;28;20021;-67
2023/04/18 05:50:38;;;;;;;;;;;;;;;7.18;78.99;102331.91;4170507;28;19929;-67
2023/04/18 05:52:40;;;;;;;;;;;;;;;7.20;79.28;102330.81;4170759;28;20023;-66
2023/04/18 05:54:42;;;;;;;;;;;;;;;7.21;79.45;102334.38;4171428;28;20019;-66
2023/04/18 05:56:44;;;;;;;;;;;;;;;7.24;79.75;102335.97;4170490;28;20019;-67
2023/04/18 05:58:47;;;;;;;;;;;;;;;7.21;79.66;102324.47;4170849;28;20016;-67
2023/04/18 06:00:49;;;;;;;;;;;;;;;7.22;79.61;102336.06;4170685;28;20016;-67
2023/04/18 06:02:51;;;;;;;;;;;;;;;7.27;79.80;102335.72;4170288;28;20576;-67
2023/04/18 06:04:58;;;;;;;;;;;;;;;7.26;79.24;102337.56;4169297;28;20032;-67
2023/04/18 06:07:02;;;;;;;;;;;;;;;7.29;79.42;102333.75;4167096;28;20015;-67
2023/04/18 06:09:05;;;;;;;;;;;;;;;7.31;79.20;102338.06;4169940;28;20036;-66
2023/04/18 06:11:07;;;;;;;;;;;;;;;7.33;79.05;102338.78;4170657;28;20402;-67
2023/04/18 06:13:09;;;;;;;;;;;;;;;7.34;79.55;102339.66;4170451;28;20007;-67
2023/04/18 06:15:11;;;;;;;;;;;;;;;7.36;79.36;102343.09;4170385;28;20067;-67
2023/04/18 06:17:14;;;;;;;;;;;;;;;7.34;79.18;102342.38;4168770;28;20462;-66
2023/04/18 06:19:16;;;;;;;;;;;;;;;7.35;79.35;102341.38;4171364;28;20020;-67
2023/04/18 06:21:22;;;;;;;;;;;;;;;7.36;79.38;102345.78;4170318;28;20024;-68
2023/04/18 06:23:24;;;;;;;;;;;;;;;7.38;79.62;102346.50;4170540;28;20037;-67
2023/04/18 06:25:27;;;;;;;;;;;;;;;7.41;79.74;102340.91;4171159;28;20380;-68
2023/04/18 06:27:29;;;;;;;;;;;;;;;7.44;79.58;102346.03;4169940;28;20339;-67
2023/04/18 06:29:32;;;;;;;;;;;;;;;7.47;79.67;102348.50;4170536;28;20019;-68
2023/04/18 06:31:34;;;;;;;;;;;;;;;7.49;79.74;102349.25;4170669;28;19936;-68
2023/04/18 06:33:36;;;;;;;;;;;;;;;7.53;80.03;102342.66;4170584;28;20020;-68
2023/04/18 06:35:40;;;;;;;;;;;;;;;7.59;80.22;102349.41;4170733;28;20024;-67
2023/04/18 06:37:43;;;;;;;;;;;;;;;7.61;79.89;102351.97;4169030;28;20019;-68
2023/04/18 06:39:45;;;;;;;;;;;;;;;7.62;79.32;102357.25;4169349;28;20023;-67
2023/04/18 06:41:47;;;;;;;;;;;;;;;7.62;79.21;102349.16;4170651;28;20455;-68
2023/04/18 06:44:01;;;;;;;;;;;;;;;7.64;79.58;102359.81;4168542;28;19925;-68
2023/04/18 06:46:04;;;;;;;;;;;;;;;7.64;79.02;102351.75;4170758;28;20020;-68
2023/04/18 06:48:07;;;;;;;;;;;;;;;7.65;79.19;102356.13;4170791;28;19970;-67
2023/04/18 06:50:11;;;;;;;;;;;;;;;7.66;79.09;102352.47;4170581;28;20065;-67
2023/04/18 06:52:13;;;;;;;;;;;;;;;7.68;79.33;102359.47;4170480;28;19936;-67
2023/04/18 06:54:17;;;;;;;;;;;;;;;7.69;79.02;102361.16;4170194;28;20024;-67
2023/04/18 06:56:19;;;;;;;;;;;;;;;7.71;79.25;102359.22;4169628;28;20020;-67
2023/04/18 06:58:21;;;;;;;;;;;;;;;7.74;79.18;102358.09;4169012;28;20524;-67
2023/04/18 07:00:23;;;;;;;;;;;;;;;7.75;79.13;102355.31;4169533;28;20029;-67
2023/04/18 07:02:27;;;;;;;;;;;;;;;7.78;78.94;102364.97;4168297;28;20019;-67
2023/04/18 07:04:29;;;;;;;;;;;;;;;7.79;78.67;102357.75;4169214;28;20020;-68
2023/04/18 07:06:31;;;;;;;;;;;;;;;7.80;78.62;102360.31;4170484;28;20029;-67
2023/04/18 07:08:43;;;;;;;;;;;;;;;7.81;78.34;102356.66;4169989;28;20023;-68
2023/04/18 07:10:49;;;;;;;;;;;;;;;7.83;78.40;102360.09;4169755;28;20016;-67
2023/04/18 07:12:52;;;;;;;;;;;;;;;7.86;78.21;102361.69;4169192;28;20036;-67
2023/04/18 07:14:54;;;;;;;;;;;;;;;7.87;78.52;102360.72;4170119;28;20043;-68
2023/04/18 07:17:00;;;;;;;;;;;;;;;7.88;78.56;102363.28;4170785;28;20039;-67
2023/04/18 07:19:02;;;;;;;;;;;;;;;7.88;78.70;102359.72;4172404;28;20020;-69
2023/04/18 07:21:06;;;;;;;;;;;;;;;7.92;78.70;102371.97;4173145;28;19968;-68
2023/04/18 07:23:09;;;;;;;;;;;;;;;7.93;78.38;102363.78;4173321;28;20016;-68
2023/04/18 07:25:11;;;;;;;;;;;;;;;7.94;78.40;102362.78;4173093;28;20017;-68
2023/04/18 07:27:16;;;;;;;;;;;;;;;7.97;78.64;102371.63;4172902;28;20023;-67
2023/04/18 07:29:21;;;;;;;;;;;;;;;7.99;79.03;102364.28;4172143;28;19925;-68
2023/04/18 07:31:27;;;;;;;;;;;;;;;8.01;78.64;102371.25;4171019;28;20032;-68
2023/04/18 07:33:32;;;;;;;;;;;;;;;8.02;78.79;102364.03;4155626;28;19934;-68
2023/04/18 07:35:35;;;;;;;;;;;;;;;8.04;78.58;102362.94;4172714;28;20011;-69
2023/04/18 07:37:39;;;;;;;;;;;;;;;8.06;78.78;102379.81;4173647;28;20442;-66
2023/04/18 07:39:41;;;;;;;;;;;;;;;8.06;78.45;102370.91;4172991;28;20015;-68
2023/04/18 07:41:46;;;;;;;;;;;;;;;8.07;78.65;102375.28;4172835;28;20019;-67
2023/04/18 07:43:50;;;;;;;;;;;;;;;8.08;78.59;102372.47;4172925;28;20016;-66
2023/04/18 07:45:52;;;;;;;;;;;;;;;8.08;78.61;102367.09;4172773;28;20913;-68
2023/04/18 07:47:54;;;;;;;;;;;;;;;8.10;78.75;102369.66;4173091;28;20027;-68
2023/04/18 07:49:56;;;;;;;;;;;;;;;8.12;78.78;102373.09;4172946;28;20023;-68
2023/04/18 07:51:58;;;;;;;;;;;;;;;8.13;78.77;102366.72;4172739;28;20007;-67
2023/04/18 07:54:00;;;;;;;;;;;;;;;8.15;79.06;102362.09;4173438;28;20429;-68
2023/04/18 07:56:02;;;;;;;;;;;;;;;8.17;78.69;102365.53;4172467;28;20020;-67
2023/04/18 07:58:04;;;;;;;;;;;;;;;8.19;78.85;102368.09;4169970;28;19975;-67
2023/04/18 08:00:09;;;;;;;;;;;;;;;8.21;78.82;102369.69;4172416;28;20016;-67
2023/04/18 08:02:15;;;;;;;;;;;;;;;8.23;78.85;102375.81;4172182;28;20019;-67
2023/04/18 08:04:16;;;;;;;;;;;;;;;8.25;79.05;102360.38;4173337;28;20020;-66
2023/04/18 08:06:20;;;;;;;;;;;;;;;8.27;78.94;102362.94;4171768;28;20419;-66
2023/04/18 08:08:22;;;;;;;;;;;;;;;8.28;78.97;102370.91;4171248;28;20024;-67
2023/04/18 08:10:24;;;;;;;;;;;;;;;8.30;78.76;102365.41;4172764;28;20004;-68
2023/04/18 08:12:26;;;;;;;;;;;;;;;8.32;78.50;102357.19;4172293;28;20024;-68
2023/04/18 08:14:28;;;;;;;;;;;;;;;8.33;78.31;102362.47;4170820;28;19933;-67
2023/04/18 08:16:31;;;;;;;;;;;;;;;8.31;78.65;102361.75;4172092;28;20012;-67
2023/04/18 08:18:33;;;;;;;;;;;;;;;8.32;78.67;102357.19;4172221;28;20028;-68
2023/04/18 08:20:36;;;;;;;;;;;;;;;8.30;78.61;102368.94;4172613;28;20028;-68
2023/04/18 08:22:40;;;;;;;;;;;;;;;8.32;78.48;102370.66;4171833;28;20036;-68
2023/04/18 08:24:42;;;;;;;;;;;;;;;8.34;78.70;102374.06;4172966;28;20020;-67
2023/04/18 08:26:47;;;;;;;;;;;;;;;8.34;78.73;102369.56;4172774;28;20632;-67
2023/04/18 08:28:50;;;;;;;;;;;;;;;8.35;78.50;102373.09;4170874;28;20035;-67
2023/04/18 08:30:53;;;;;;;;;;;;;;;8.37;78.59;102373.84;4171455;28;20012;-67
2023/04/18 08:32:57;;;;;;;;;;;;;;;8.36;78.95;102375.69;4170317;28;20067;-66
2023/04/18 08:34:59;;;;;;;;;;;;;;;8.36;78.74;102375.69;4172714;28;20889;-67
2023/04/18 08:37:01;;;;;;;;;;;;;;;8.36;78.78;102377.53;4171638;28;20056;-67
2023/04/18 08:39:05;;;;;;;;;;;;;;;8.37;79.17;102377.41;4172520;28;20347;-66
2023/04/18 08:41:07;;;;;;;;;;;;;;;8.37;79.20;102379.22;4171854;28;20036;-66
2023/04/18 08:43:11;;;;;;;;;;;;;;;8.38;79.15;102378.25;4171940;28;19960;-66
2023/04/18 08:45:13;;;;;;;;;;;;;;;8.38;78.97;102375.56;4172125;28;20012;-66
2023/04/18 08:47:15;;;;;;;;;;;;;;;8.39;79.13;102364.66;4172112;28;20011;-66
2023/04/18 08:49:21;;;;;;;;;;;;;;;8.41;78.95;102367.25;4170740;28;20443;-66
2023/04/18 08:51:23;;;;;;;;;;;;;;;8.42;78.74;102367.13;4172224;28;20019;-66
2023/04/18 08:53:26;;;;;;;;;;;;;;;8.45;79.09;102371.44;4171923;28;20011;-67
2023/04/18 08:55:28;;;;;;;;;;;;;;;8.46;78.91;102370.44;4170843;28;20472;-67
2023/04/18 08:57:32;;;;;;;;;;;;;;;8.50;78.70;102377.31;4172197;28;20020;-67
2023/04/18 08:59:34;;;;;;;;;;;;;;;8.54;78.59;102372.53;4171346;28;20126;-67
2023/04/18 09:01:55;;;;;;;;;;;;;;;8.55;78.75;102372.41;4170789;28;20015;-67
2023/04/18 09:03:57;;;;;;;;;;;;;;;8.58;78.08;102382.91;4171627;28;20350;-66
2023/04/18 09:06:08;;;;;;;;;;;;;;;8.61;78.13;102385.38;4171272;28;20476;-68
2023/04/18 09:08:22;;;;;;;;;;;;;;;8.64;77.47;102378.88;4172123;28;20035;-68
2023/04/18 09:10:25;;;;;;;;;;;;;;;8.68;77.45;102366.03;4171955;28;20019;-68
2023/04/18 09:12:28;;;;;;;;;;;;;;;8.70;77.28;102364.91;4172066;28;20023;-68
2023/04/18 09:14:31;;;;;;;;;;;;;;;8.73;77.02;102358.41;4171130;28;20032;-68
2023/04/18 09:16:46;;;;;;;;;;;;;;;8.76;76.72;102360.84;4171534;28;19976;-68
2023/04/18 09:19:07;;;;;;;;;;;;;;;8.79;76.30;102368.69;4171710;28;20023;-67
2023/04/18 09:21:20;;;;;;;;;;;;;;;8.82;76.05;102368.44;4171148;28;20024;-67
2023/04/18 09:23:23;;;;;;;;;;;;;;;8.85;76.12;102360.09;4171490;28;20019;-68
2023/04/18 09:25:26;;;;;;;;;;;;;;;8.89;76.20;102369.66;4171635;28;20004;-68
2023/04/18 09:27:29;;;;;;;;;;;;;;;8.89;75.93;102369.66;4171265;28;20004;-68
2023/04/18 09:29:45;;;;;;;;;;;;;;;8.90;75.72;102365.13;4170639;28;20028;-67
2023/04/18 09:31:54;;;;;;;;;;;;;;;8.93;75.68;102364.88;4170558;28;20381;-67
2023/04/18 09:34:03;;;;;;;;;;;;;;;8.93;75.49;102371.09;4169576;28;20395;-68
2023/04/18 09:36:18;;;;;;;;;;;;;;;8.97;75.53;102369.88;4170610;28;20370;-67
2023/04/18 09:38:21;;;;;;;;;;;;;;;9.00;75.63;102368.78;4171715;28;19925;-67
2023/04/18 09:40:23;;;;;;;;;;;;;;;9.04;76.44;102370.22;4170885;28;20012;-67
2023/04/18 09:42:26;;;;;;;;;;;;;;;9.05;75.53;102371.09;4169844;28;20450;-67
2023/04/18 09:44:28;;;;;;;;;;;;;;;9.07;75.50;102371.81;4171430;28;20024;-68
2023/04/18 09:46:30;;;;;;;;;;;;;;;9.08;75.40;102365.44;4170002;28;20413;-68
2023/04/18 09:48:32;;;;;;;;;;;;;;;9.10;75.32;102368.88;4171052;28;20033;-67
2023/04/18 09:50:34;;;;;;;;;;;;;;;9.13;75.45;102372.16;4170639;28;20024;-68
2023/04/18 09:52:36;;;;;;;;;;;;;;;9.15;75.34;102364.81;4170811;28;20015;-67
2023/04/18 09:54:43;;;;;;;;;;;;;;;9.17;75.49;102362.84;4167904;28;20036;-67
2023/04/18 09:56:45;;;;;;;;;;;;;;;9.17;75.42;102362.84;4170919;28;20036;-68
2023/04/18 09:58:47;;;;;;;;;;;;;;;9.18;75.28;102363.69;4171512;28;19925;-68
2023/04/18 10:00:49;;;;;;;;;;;;;;;9.17;74.83;102362.84;4170774;28;20361;-68
2023/04/18 10:02:52;;;;;;;;;;;;;;;9.18;74.95;102369.06;4170672;28;20024;-67
2023/04/18 10:04:54;;;;;;;;;;;;;;;9.20;75.11;102361.72;4171034;28;20024;-67
2023/04/18 10:06:57;;;;;;;;;;;;;;;9.24;74.90;102363.16;4170264;28;20123;-67
2023/04/18 10:09:00;;;;;;;;;;;;;;;9.27;74.82;102351.28;4169985;28;20037;-67
2023/04/18 10:11:03;;;;;;;;;;;;;;;9.31;75.14;102359.00;4168451;28;20020;-68
2023/04/18 10:13:05;;;;;;;;;;;;;;;9.33;74.84;102351.63;4169613;28;20016;-68
2023/04/18 10:15:09;;;;;;;;;;;;;;;9.34;74.98;102353.34;4170908;28;20011;-68
2023/04/18 10:17:11;;;;;;;;;;;;;;;9.37;74.89;102347.69;4170775;28;20031;-67
2023/04/18 10:19:21;;;;;;;;;;;;;;;9.42;74.79;102351.81;4169510;28;19950;-68
2023/04/18 10:21:22;;;;;;;;;;;;;;;9.46;75.05;102353.28;4170815;28;20020;-67
2023/04/18 10:23:34;;;;;;;;;;;;;;;9.48;74.69;102357.56;4170786;28;20019;-67
2023/04/18 10:25:49;;;;;;;;;;;;;;;9.50;74.78;102360.13;4169792;28;20028;-68
2023/04/18 10:28:01;;;;;;;;;;;;;;;9.53;74.72;102354.47;4170649;28;20027;-68
2023/04/18 10:30:03;;;;;;;;;;;;;;;9.54;74.42;102366.97;4161502;28;20024;-67
2023/04/18 10:32:05;;;;;;;;;;;;;;;9.52;74.77;102358.16;4169565;28;20095;-67
2023/04/18 10:34:08;;;;;;;;;;;;;;;9.52;74.86;102359.00;4170957;28;20007;-68
2023/04/18 10:36:18;;;;;;;;;;;;;;;9.52;74.53;102352.75;4170020;28;20023;-68
2023/04/18 10:38:22;;;;;;;;;;;;;;;9.53;75.01;102360.72;4170685;28;20027;-67
2023/04/18 10:40:32;;;;;;;;;;;;;;;9.55;74.91;102361.44;4170591;28;19928;-67
2023/04/18 10:42:52;;;;;;;;;;;;;;;9.59;75.10;102356.63;4170230;28;20020;-68
2023/04/18 10:45:13;;;;;;;;;;;;;;;9.60;74.93;102361.03;4169938;28;20019;-68
2023/04/18 10:47:21;;;;;;;;;;;;;;;9.61;74.89;102354.69;4170357;28;20021;-67